Hlavní strana
METAR-TAF:

METAR-TAF

Letiště :

Sindal, Dánsko

zeměpisná šířka: 57-30N, zeměpisná délka: 010-13E, výška: 28 m

Aktuální stav počasí

Zpráva byla vytvořena před 37 minutami, v 09:50 UTC
Jihojihovýchodní vítr 8 kt
Teplota 1°C
Vlhkost vzduchu 93%
Tlak 1009 hPa
Viditelnost 10 km a více
Polojasno ve výšce 1200 ft
Oblačno až skoro zataženo ve výšce 4000 ft

METAR: EKSN 220950Z 15008KT 9999 SCT012 BKN040 01/00 Q1009 R08/790091

Čas: 11:27 (10:27 UTC)

Předpověď počasí

Zpráva byla vytvořena před 1 hodinou a 34 minutami, v 08:53 UTC
Předpověď platná od 22 v 09 UTC do 22 v 15 UTC
Jihojihovýchodní vítr 8 kt
Viditelnost: 8000 m
Oblačno až skoro zataženo ve výšce 2000 ft
Změna
od 22 v 10 UTC do 22 v 12 UTC
Viditelnost: 0800 m
ve výšce 200 ft
mlha, mrznoucí mlha
Změna
od 22 v 13 UTC do 22 v 15 UTC
Viditelnost: 8000 m
Oblačno až skoro zataženo ve výšce 800 ft

TAF: EKSN 220853Z 2209/2215 16008KT 8000 BKN020 BECMG 2210/2212 0800 FG FZFG VV002 BECMG 2213/2215 8000 NSW BKN008

Stav a předpovědi počasí z více než 4 000 letišť (zprávy METAR a TAF).

Červené a žluté tečky na mapě představují dostupné meteorologické stanice.

Když kurzor umístíte na tečku, zobrazí se název stanice.

Pak kliknutím zobrazíte stav a předpověď počasí.

Chcete-li změnit mapu, kliknutím na zelené tlačítko se znaménkem +mapu přiblížíte, kliknutím na zelené tlačítko se znaménkem – mapu oddálíte a kliknutím na zelené šipky přejdete na sousední mapy.


METAR-TAF: